createdAt,value
2023-03-02T00:02:18.982Z,30.80
2023-03-02T00:04:57.072Z,29.00
2023-03-02T00:07:33.058Z,28.50
2023-03-02T00:10:01.756Z,28.90
2023-03-02T00:12:32.850Z,28.30
2023-03-02T00:15:01.303Z,29.00
2023-03-02T00:17:29.651Z,28.90
2023-03-02T00:20:07.538Z,29.80
2023-03-02T00:22:36.689Z,26.80
2023-03-02T00:25:06.669Z,29.00
2023-03-02T00:27:35.636Z,28.60
2023-03-02T00:30:05.127Z,27.70
2023-03-02T00:32:34.508Z,28.20
2023-03-02T00:35:03.166Z,26.80
2023-03-02T00:37:31.850Z,26.80
2023-03-02T00:40:00.244Z,27.20
2023-03-02T00:42:28.604Z,26.40
2023-03-02T00:45:01.597Z,25.70
2023-03-02T00:47:30.133Z,26.10
2023-03-02T00:49:58.639Z,23.20
2023-03-02T00:52:27.331Z,24.70
2023-03-02T00:54:55.704Z,24.30
2023-03-02T00:57:25.227Z,24.10
2023-03-02T00:59:55.034Z,25.10
2023-03-02T01:02:27.646Z,23.80
2023-03-02T01:04:56.310Z,25.50
2023-03-02T01:07:28.636Z,26.90
2023-03-02T01:09:57.040Z,26.00
2023-03-02T01:12:25.427Z,24.90
2023-03-02T01:14:55.812Z,25.20
2023-03-02T01:17:25.449Z,22.00
2023-03-02T01:19:54.500Z,22.00
2023-03-02T01:22:24.107Z,25.00
2023-03-02T01:24:53.433Z,23.70
2023-03-02T01:27:22.505Z,24.30
2023-03-02T01:29:50.900Z,25.60
2023-03-02T01:32:19.363Z,22.20
2023-03-02T01:34:47.843Z,23.60
2023-03-02T01:37:16.379Z,23.30
2023-03-02T01:39:44.821Z,25.60
2023-03-02T01:42:13.321Z,23.10
2023-03-02T01:44:57.315Z,22.10
2023-03-02T01:47:37.332Z,23.80
2023-03-02T01:50:26.941Z,21.20
2023-03-02T01:52:58.699Z,22.10
2023-03-02T01:55:31.678Z,22.30
2023-03-02T01:58:03.068Z,21.80
2023-03-02T02:00:37.530Z,21.90
2023-03-02T02:03:22.349Z,21.00
2023-03-02T02:06:11.930Z,20.20
2023-03-02T02:08:40.445Z,20.70
2023-03-02T02:11:09.438Z,22.70
2023-03-02T02:13:37.990Z,21.40
2023-03-02T02:16:07.549Z,21.20
2023-03-02T02:18:40.154Z,21.90
2023-03-02T02:21:09.227Z,22.50
2023-03-02T02:23:38.821Z,18.30
2023-03-02T02:26:32.145Z,21.80
2023-03-02T02:29:08.096Z,21.40
2023-03-02T02:31:48.013Z,23.20
2023-03-02T02:34:31.141Z,22.00
2023-03-02T02:37:07.876Z,21.30
2023-03-02T02:39:41.844Z,22.30
2023-03-02T02:42:37.592Z,23.70
2023-03-02T02:45:20.412Z,23.90
2023-03-02T02:47:51.038Z,23.30
2023-03-02T02:50:27.727Z,21.70
2023-03-02T02:53:02.970Z,21.10
2023-03-02T02:55:33.574Z,23.50
2023-03-02T02:58:10.230Z,22.70
2023-03-02T03:00:38.738Z,23.80
2023-03-02T03:03:31.437Z,24.00
2023-03-02T03:06:07.785Z,24.00
2023-03-02T03:09:02.692Z,21.30
2023-03-02T03:11:40.638Z,21.50
2023-03-02T03:14:19.924Z,22.50
2023-03-02T03:16:50.770Z,23.00
2023-03-02T03:19:47.360Z,23.80
2023-03-02T03:22:17.433Z,23.10
2023-03-02T03:24:46.727Z,26.00
2023-03-02T03:27:16.612Z,22.60
2023-03-02T03:29:50.427Z,22.00
2023-03-02T03:32:20.897Z,22.00
2023-03-02T03:34:50.323Z,22.60
2023-03-02T03:37:25.741Z,22.80
2023-03-02T03:39:54.893Z,24.40
2023-03-02T03:42:24.240Z,24.10
2023-03-02T03:44:53.254Z,23.00
2023-03-02T03:47:22.945Z,24.90
2023-03-02T03:49:51.811Z,23.80
2023-03-02T03:52:46.431Z,23.20
2023-03-02T03:55:19.532Z,24.40
2023-03-02T03:57:48.868Z,22.60
2023-03-02T04:00:18.368Z,22.50
2023-03-02T04:02:59.856Z,23.90
2023-03-02T04:05:31.585Z,23.90
2023-03-02T04:08:02.288Z,24.20
2023-03-02T04:10:31.698Z,23.40
2023-03-02T04:13:01.233Z,23.30
2023-03-02T04:15:30.423Z,21.50
2023-03-02T04:18:01.003Z,21.70
2023-03-02T04:20:30.424Z,24.50
2023-03-02T04:22:59.361Z,23.60
2023-03-02T04:25:29.995Z,23.10
2023-03-02T04:28:06.503Z,22.70
2023-03-02T04:30:38.469Z,23.20
2023-03-02T04:33:07.261Z,22.30
2023-03-02T04:35:36.853Z,22.20
2023-03-02T04:38:05.770Z,23.00
2023-03-02T04:40:34.659Z,23.30
2023-03-02T04:43:03.046Z,22.80
2023-03-02T04:45:31.755Z,21.90
2023-03-02T04:48:00.206Z,25.10
2023-03-02T04:50:28.788Z,26.40
2023-03-02T04:52:57.329Z,24.30
2023-03-02T04:55:28.216Z,23.70
2023-03-02T04:57:57.133Z,26.90
2023-03-02T05:00:25.741Z,25.00
2023-03-02T05:02:55.319Z,23.60
2023-03-02T05:05:25.036Z,24.10
2023-03-02T05:07:54.170Z,23.90
2023-03-02T05:10:23.681Z,23.20
2023-03-02T05:12:58.767Z,23.00
2023-03-02T05:15:45.428Z,22.40
2023-03-02T05:18:15.347Z,23.40
2023-03-02T05:20:43.925Z,22.30
2023-03-02T05:23:25.641Z,23.00
2023-03-02T05:25:56.876Z,24.10
2023-03-02T05:28:27.902Z,22.20
2023-03-02T05:30:56.411Z,23.40
2023-03-02T05:33:24.979Z,22.20
2023-03-02T05:35:53.858Z,22.90
2023-03-02T05:38:22.285Z,23.40
2023-03-02T05:40:50.908Z,22.60
2023-03-02T05:43:22.157Z,25.30
2023-03-02T05:45:50.821Z,24.30
2023-03-02T05:48:19.478Z,24.30
2023-03-02T05:50:47.955Z,21.90
2023-03-02T05:53:16.612Z,22.60
2023-03-02T05:55:45.131Z,23.40
2023-03-02T05:58:17.388Z,23.80
2023-03-02T06:00:47.762Z,22.70
2023-03-02T06:03:17.092Z,23.20
2023-03-02T06:05:51.077Z,23.60
2023-03-02T06:08:21.838Z,24.40
2023-03-02T06:10:51.044Z,24.20
2023-03-02T06:13:19.423Z,24.10
2023-03-02T06:15:47.836Z,23.50
2023-03-02T06:18:16.455Z,24.80
2023-03-02T06:20:45.311Z,23.40
2023-03-02T06:23:14.246Z,24.90
2023-03-02T06:25:48.295Z,24.50
2023-03-02T06:28:20.134Z,24.70
2023-03-02T06:30:49.988Z,22.90
2023-03-02T06:33:21.514Z,22.80
2023-03-02T06:35:50.497Z,23.60
2023-03-02T06:38:19.345Z,29.30
2023-03-02T06:40:47.770Z,26.70
2023-03-02T06:43:16.209Z,24.80
2023-03-02T06:45:44.685Z,21.20
2023-03-02T06:48:13.134Z,23.00
2023-03-02T06:50:41.685Z,22.20
2023-03-02T06:53:10.264Z,21.70
2023-03-02T06:55:38.795Z,18.90
2023-03-02T06:58:07.255Z,19.60
2023-03-02T07:00:35.753Z,21.00
2023-03-02T07:03:04.302Z,20.40
2023-03-02T07:05:32.854Z,21.60
2023-03-02T07:08:01.372Z,19.80
2023-03-02T07:10:29.796Z,21.50
2023-03-02T07:12:58.202Z,20.70
2023-03-02T07:15:26.987Z,20.60
2023-03-02T07:17:55.351Z,19.60
2023-03-02T07:20:23.805Z,19.70
2023-03-02T07:22:52.226Z,21.60
2023-03-02T07:25:20.720Z,21.20
2023-03-02T07:27:49.649Z,19.70
2023-03-02T07:30:21.421Z,22.30
2023-03-02T07:32:49.890Z,21.00
2023-03-02T07:35:18.811Z,22.70
2023-03-02T07:37:49.137Z,20.20
2023-03-02T07:40:17.779Z,23.00
2023-03-02T07:42:46.298Z,23.40
2023-03-02T07:45:17.102Z,20.90
2023-03-02T07:47:45.454Z,23.10
2023-03-02T07:50:13.861Z,25.20
2023-03-02T07:52:42.570Z,24.10
2023-03-02T07:55:11.264Z,24.70
2023-03-02T07:57:39.647Z,25.70
2023-03-02T08:00:09.608Z,24.10
2023-03-02T08:02:42.222Z,22.80
2023-03-02T08:05:12.603Z,22.30
2023-03-02T08:07:41.126Z,22.40
2023-03-02T08:10:11.427Z,22.20
2023-03-02T08:12:40.504Z,21.50
2023-03-02T08:15:10.202Z,23.10
2023-03-02T08:17:38.718Z,23.80
2023-03-02T08:20:08.399Z,21.40
2023-03-02T08:22:36.878Z,23.60
2023-03-02T08:25:07.399Z,14.80
2023-03-02T08:27:36.061Z,12.60
2023-03-02T08:30:05.187Z,12.30
2023-03-02T08:32:35.077Z,12.50
2023-03-02T08:35:04.962Z,11.20
2023-03-02T08:37:34.606Z,13.40
2023-03-02T08:40:03.956Z,11.20
2023-03-02T08:42:32.396Z,12.30
2023-03-02T08:45:00.740Z,11.60
2023-03-02T08:47:29.173Z,14.10
2023-03-02T08:49:57.535Z,9.90
2023-03-02T08:52:26.001Z,9.40
2023-03-02T08:54:54.458Z,11.30
2023-03-02T08:57:22.826Z,9.60
2023-03-02T08:59:52.579Z,9.30
2023-03-02T09:02:21.043Z,9.10
2023-03-02T09:04:50.067Z,10.30
2023-03-02T09:07:18.612Z,8.90
2023-03-02T09:09:47.049Z,8.40
2023-03-02T09:12:15.526Z,8.30
2023-03-02T09:14:44.030Z,8.70
2023-03-02T09:17:15.675Z,8.00
2023-03-02T09:19:44.745Z,8.40
2023-03-02T09:22:13.350Z,8.70
2023-03-02T09:24:41.768Z,7.90
2023-03-02T09:27:10.120Z,8.90
2023-03-02T09:29:38.540Z,9.00
2023-03-02T09:32:07.328Z,8.10
2023-03-02T09:34:35.836Z,7.70
2023-03-02T09:37:04.315Z,7.90
2023-03-02T09:39:32.821Z,8.10
2023-03-02T09:42:23.983Z,7.50
2023-03-02T09:45:10.800Z,7.20
2023-03-02T09:48:10.855Z,6.30
2023-03-02T09:51:02.587Z,7.70
2023-03-02T09:54:01.880Z,6.40
2023-03-02T09:56:31.570Z,7.10
2023-03-02T09:59:23.269Z,5.90
2023-03-02T10:02:11.440Z,7.30
2023-03-02T10:04:53.613Z,7.20
2023-03-02T10:07:38.295Z,6.90
2023-03-02T10:10:09.807Z,6.10
2023-03-02T10:13:12.168Z,6.70
2023-03-02T10:15:55.732Z,6.50
2023-03-02T10:18:40.847Z,6.40
2023-03-02T10:21:27.434Z,5.40
2023-03-02T10:24:50.537Z,6.90
2023-03-02T10:27:48.330Z,5.50
2023-03-02T10:30:37.503Z,6.00
2023-03-02T10:33:54.438Z,5.20
2023-03-02T10:36:28.147Z,5.50
2023-03-02T10:39:00.467Z,5.60
2023-03-02T10:41:41.568Z,5.30
2023-03-02T10:44:21.905Z,5.50
2023-03-02T10:46:53.838Z,6.00
2023-03-02T10:49:33.894Z,6.50
2023-03-02T10:52:25.598Z,5.50
2023-03-02T10:55:15.513Z,5.50
2023-03-02T10:57:46.563Z,4.50
2023-03-02T11:00:25.259Z,4.20
2023-03-02T11:03:05.953Z,4.40
2023-03-02T11:05:37.365Z,4.60
2023-03-02T11:08:10.534Z,5.10
2023-03-02T11:11:00.630Z,4.60
2023-03-02T11:13:38.521Z,5.10
2023-03-02T11:16:19.228Z,4.90
2023-03-02T11:19:15.603Z,5.30
2023-03-02T11:21:51.185Z,5.30
2023-03-02T11:24:42.515Z,4.90
2023-03-02T11:27:23.071Z,4.90
2023-03-02T11:30:22.904Z,4.90
2023-03-02T11:33:30.162Z,4.80
2023-03-02T11:36:24.631Z,4.20
2023-03-02T11:38:56.355Z,5.20
2023-03-02T11:41:35.933Z,3.90
2023-03-02T11:44:20.227Z,4.70
2023-03-02T11:46:53.742Z,3.20
2023-03-02T11:49:32.150Z,3.80
2023-03-02T11:52:00.863Z,5.10
2023-03-02T11:54:46.211Z,4.90
2023-03-02T11:57:35.815Z,4.30
2023-03-02T12:00:30.080Z,4.90
2023-03-02T12:03:24.817Z,5.30
2023-03-02T12:05:53.109Z,5.10
2023-03-02T12:08:21.495Z,4.50
2023-03-02T12:11:36.385Z,4.60
2023-03-02T12:14:27.075Z,4.70
2023-03-02T12:17:31.593Z,4.20
2023-03-02T12:20:09.277Z,4.90
2023-03-02T12:22:38.060Z,5.10
2023-03-02T12:25:20.214Z,5.00
2023-03-02T12:27:52.510Z,5.20
2023-03-02T12:30:28.488Z,3.70
2023-03-02T12:33:03.043Z,4.20
2023-03-02T12:35:35.251Z,4.50
2023-03-02T12:38:34.011Z,5.20
2023-03-02T12:41:21.016Z,4.40
2023-03-02T12:44:28.076Z,4.40
2023-03-02T12:46:59.270Z,4.10
2023-03-02T12:49:46.812Z,4.50
2023-03-02T12:52:23.933Z,2.60
2023-03-02T12:55:18.022Z,2.70
2023-03-02T12:57:55.055Z,4.80
2023-03-02T13:00:33.648Z,3.40
2023-03-02T13:03:02.376Z,4.80
2023-03-02T13:05:35.442Z,4.60
2023-03-02T13:08:24.325Z,5.00
2023-03-02T13:10:56.188Z,4.90
2023-03-02T13:13:44.768Z,5.20
2023-03-02T13:16:31.309Z,4.40
2023-03-02T13:19:18.531Z,5.30
2023-03-02T13:21:47.267Z,5.30
2023-03-02T13:24:44.514Z,4.80
2023-03-02T13:27:19.702Z,4.70
2023-03-02T13:29:49.572Z,4.50
2023-03-02T13:32:25.845Z,3.80
2023-03-02T13:34:59.797Z,4.60
2023-03-02T13:37:44.191Z,4.80
2023-03-02T13:40:21.895Z,4.30
2023-03-02T13:42:51.516Z,5.90
2023-03-02T13:45:33.269Z,3.80
2023-03-02T13:48:15.501Z,5.00
2023-03-02T13:50:58.673Z,4.80
2023-03-02T13:53:30.292Z,4.80
2023-03-02T13:56:02.960Z,4.80
2023-03-02T13:58:38.464Z,4.60
2023-03-02T14:01:07.844Z,4.70
2023-03-02T14:03:36.390Z,4.90
2023-03-02T14:06:06.277Z,4.70
2023-03-02T14:08:34.672Z,4.60
2023-03-02T14:11:04.258Z,4.30
2023-03-02T14:13:55.160Z,4.60
2023-03-02T14:16:24.476Z,3.40
2023-03-02T14:18:52.994Z,5.40
2023-03-02T14:21:24.797Z,4.00
2023-03-02T14:23:54.401Z,4.90
2023-03-02T14:26:45.159Z,4.50
2023-03-02T14:29:31.133Z,5.70
2023-03-02T14:32:06.879Z,6.40
2023-03-02T14:34:39.055Z,5.80
2023-03-02T14:37:13.841Z,5.70
2023-03-02T14:39:54.093Z,5.30
2023-03-02T14:42:23.928Z,6.10
2023-03-02T14:44:52.746Z,5.90
2023-03-02T14:47:21.960Z,4.80
2023-03-02T14:49:50.437Z,5.00
2023-03-02T14:52:49.294Z,6.40
2023-03-02T14:55:26.107Z,5.70
2023-03-02T14:58:10.698Z,5.70
2023-03-02T15:00:39.256Z,5.30
2023-03-02T15:03:07.789Z,5.80
2023-03-02T15:05:36.614Z,5.60
2023-03-02T15:08:05.302Z,4.70
2023-03-02T15:10:33.749Z,5.70
2023-03-02T15:13:02.218Z,5.50
2023-03-02T15:15:31.168Z,5.20
2023-03-02T15:17:59.687Z,5.10
2023-03-02T15:20:29.083Z,5.00
2023-03-02T15:22:57.590Z,8.30
2023-03-02T15:25:26.321Z,11.20
2023-03-02T15:27:58.135Z,8.60
2023-03-02T15:30:30.720Z,7.00
2023-03-02T15:33:01.822Z,4.60
2023-03-02T15:35:30.346Z,7.90
2023-03-02T15:38:02.531Z,10.90
2023-03-02T15:40:30.903Z,8.90
2023-03-02T15:42:59.509Z,7.00
2023-03-02T15:45:29.003Z,7.70
2023-03-02T15:47:57.618Z,8.60
2023-03-02T15:50:26.065Z,6.60
2023-03-02T15:52:55.747Z,10.80
2023-03-02T15:55:24.134Z,16.00
2023-03-02T15:57:52.470Z,12.60
2023-03-02T16:00:21.417Z,11.40
2023-03-02T16:02:50.303Z,11.00
2023-03-02T16:05:18.893Z,12.40
2023-03-02T16:07:47.318Z,15.80
2023-03-02T16:10:16.807Z,16.60
2023-03-02T16:12:45.226Z,11.80
2023-03-02T16:15:13.739Z,9.90
2023-03-02T16:17:42.785Z,10.70
2023-03-02T16:20:12.113Z,7.80
2023-03-02T16:22:40.534Z,7.50
2023-03-02T16:25:09.729Z,7.00
2023-03-02T16:27:38.274Z,8.90
2023-03-02T16:30:07.702Z,8.50
2023-03-02T16:32:36.143Z,9.70
2023-03-02T16:35:04.923Z,7.10
2023-03-02T16:37:33.873Z,9.80
2023-03-02T16:40:02.258Z,10.30
2023-03-02T16:42:31.630Z,9.60
2023-03-02T16:45:00.051Z,10.60
2023-03-02T16:47:28.520Z,10.70
2023-03-02T16:49:58.518Z,10.60
2023-03-02T16:52:27.147Z,9.60
2023-03-02T16:54:55.637Z,12.50
2023-03-02T16:57:24.177Z,13.50
2023-03-02T16:59:52.592Z,9.50
2023-03-02T17:02:21.254Z,12.10
2023-03-02T17:04:49.684Z,11.00
2023-03-02T17:07:19.127Z,11.50
2023-03-02T17:09:47.518Z,25.90
2023-03-02T17:12:15.935Z,33.10
2023-03-02T17:14:44.412Z,39.30
2023-03-02T17:17:12.960Z,42.70
2023-03-02T17:19:41.386Z,43.00
2023-03-02T17:22:35.604Z,41.80
2023-03-02T17:25:08.159Z,41.50
2023-03-02T17:27:36.962Z,36.50
2023-03-02T17:30:06.955Z,34.30
2023-03-02T17:32:35.437Z,31.50
2023-03-02T17:35:05.224Z,26.60
2023-03-02T17:37:34.957Z,15.10
2023-03-02T17:40:05.873Z,15.00
2023-03-02T17:42:34.466Z,15.90
2023-03-02T17:45:03.800Z,17.60
2023-03-02T17:47:33.456Z,16.70
2023-03-02T17:50:05.036Z,18.70
2023-03-02T17:52:33.919Z,22.60
2023-03-02T17:55:02.930Z,25.10
2023-03-02T17:57:31.427Z,22.90
2023-03-02T17:59:59.940Z,24.00
2023-03-02T18:02:28.415Z,25.20
2023-03-02T18:04:56.815Z,25.20
2023-03-02T18:07:25.351Z,28.60
2023-03-02T18:09:53.728Z,27.30
2023-03-02T18:12:22.112Z,25.80
2023-03-02T18:14:50.955Z,29.90
2023-03-02T18:17:20.831Z,31.10
2023-03-02T18:19:49.304Z,26.20
2023-03-02T18:22:17.745Z,28.20
2023-03-02T18:24:47.675Z,30.30
2023-03-02T18:27:17.826Z,29.10
2023-03-02T18:29:46.343Z,28.10
2023-03-02T18:32:15.260Z,27.40
2023-03-02T18:34:43.974Z,29.30
2023-03-02T18:37:12.905Z,31.70
2023-03-02T18:39:41.281Z,31.40
2023-03-02T18:42:12.473Z,30.90
2023-03-02T18:44:41.378Z,26.00
2023-03-02T18:47:16.387Z,29.60
2023-03-02T18:49:46.096Z,30.80
2023-03-02T18:52:16.736Z,33.00
2023-03-02T18:54:47.074Z,32.70
2023-03-02T18:57:15.860Z,29.30
2023-03-02T18:59:44.318Z,31.60
2023-03-02T19:02:22.801Z,29.80
2023-03-02T19:04:53.632Z,31.40
2023-03-02T19:07:22.227Z,30.60
2023-03-02T19:09:50.701Z,32.90
2023-03-02T19:12:19.989Z,31.60
2023-03-02T19:15:07.291Z,33.30
2023-03-02T19:17:42.980Z,32.90
2023-03-02T19:20:17.016Z,39.40
2023-03-02T19:22:45.468Z,33.20
2023-03-02T19:25:14.208Z,34.10
2023-03-02T19:27:43.012Z,30.90
2023-03-02T19:30:18.486Z,30.20
2023-03-02T19:32:47.172Z,31.70
2023-03-02T19:35:19.730Z,29.80
2023-03-02T19:37:48.263Z,30.50
2023-03-02T19:40:19.570Z,34.50
2023-03-02T19:42:49.677Z,32.80
2023-03-02T19:45:29.466Z,30.90
2023-03-02T19:48:01.835Z,32.40
2023-03-02T19:50:30.519Z,32.70
2023-03-02T19:52:59.540Z,31.20
2023-03-02T19:55:28.053Z,32.80
2023-03-02T19:57:59.933Z,34.50
2023-03-02T20:00:32.856Z,34.80
2023-03-02T20:03:06.733Z,32.20
2023-03-02T20:05:38.795Z,32.90
2023-03-02T20:08:08.444Z,31.00
2023-03-02T20:10:45.576Z,30.00
2023-03-02T20:13:14.781Z,30.10
2023-03-02T20:15:47.018Z,29.40
2023-03-02T20:20:48.812Z,28.20
2023-03-02T20:23:18.199Z,25.50
2023-03-02T20:25:48.401Z,29.70
2023-03-02T20:28:22.866Z,28.90
2023-03-02T20:30:56.625Z,29.00
2023-03-02T20:33:33.370Z,29.60
2023-03-02T20:36:04.175Z,32.30
2023-03-02T20:38:51.912Z,29.50
2023-03-02T20:41:20.494Z,29.20
2023-03-02T20:43:49.267Z,29.30
2023-03-02T20:46:30.859Z,29.30
2023-03-02T20:48:59.496Z,27.80
2023-03-02T20:51:29.373Z,27.80
2023-03-02T20:53:58.394Z,27.60
2023-03-02T20:56:27.086Z,29.30
2023-03-02T20:58:56.726Z,31.50
2023-03-02T21:01:26.272Z,28.90
2023-03-02T21:03:54.910Z,28.10
2023-03-02T21:06:24.029Z,29.60
2023-03-02T21:08:53.537Z,27.90
2023-03-02T21:11:22.984Z,33.90
2023-03-02T21:13:51.932Z,31.10
2023-03-02T21:16:25.773Z,29.40
2023-03-02T21:18:55.351Z,31.30
2023-03-02T21:21:40.413Z,27.40
2023-03-02T21:24:13.853Z,30.80
2023-03-02T21:29:14.502Z,21.50
2023-03-02T21:31:44.003Z,27.70
2023-03-02T21:34:14.355Z,27.70
2023-03-02T21:36:43.438Z,29.60
2023-03-02T21:39:12.259Z,26.40
2023-03-02T21:41:40.704Z,28.10
2023-03-02T21:44:09.771Z,27.00
2023-03-02T21:46:39.584Z,22.80
2023-03-02T21:49:08.422Z,26.20
2023-03-02T21:53:53.286Z,26.90
2023-03-02T21:56:25.090Z,25.00
2023-03-02T21:58:57.288Z,22.80
2023-03-02T22:01:27.036Z,22.40
2023-03-02T22:03:56.491Z,25.10
2023-03-02T22:06:29.259Z,23.90
2023-03-02T22:08:58.747Z,22.90
2023-03-02T22:11:38.396Z,23.50
2023-03-02T22:14:17.823Z,22.70
2023-03-02T22:16:48.205Z,23.60
2023-03-02T22:19:27.247Z,26.10
2023-03-02T22:22:06.048Z,27.00
2023-03-02T22:24:34.652Z,25.90
2023-03-02T22:27:25.029Z,24.40
2023-03-02T22:29:59.118Z,25.20
2023-03-02T22:32:35.517Z,24.00
2023-03-02T22:35:27.570Z,26.70
2023-03-02T22:38:19.606Z,25.50
2023-03-02T22:40:48.125Z,25.90
2023-03-02T22:43:34.819Z,26.60
2023-03-02T22:46:17.464Z,26.90
2023-03-02T22:48:54.533Z,29.80
2023-03-02T22:51:30.748Z,28.10
2023-03-02T22:54:01.334Z,29.40
2023-03-02T22:56:46.204Z,24.70
2023-03-02T22:59:27.607Z,28.40
2023-03-02T23:02:02.108Z,26.30
2023-03-02T23:04:36.035Z,26.10
2023-03-02T23:07:23.016Z,22.20
2023-03-02T23:09:51.478Z,30.50
2023-03-02T23:12:24.014Z,21.20
2023-03-02T23:14:58.463Z,26.20
2023-03-02T23:17:39.106Z,23.90
2023-03-02T23:20:12.144Z,23.80
2023-03-02T23:22:41.043Z,24.30
2023-03-02T23:25:09.864Z,24.50
2023-03-02T23:27:38.320Z,25.70
2023-03-02T23:30:07.425Z,28.00
2023-03-02T23:32:36.813Z,26.60
2023-03-02T23:35:05.820Z,25.20
2023-03-02T23:37:34.337Z,25.30
2023-03-02T23:40:04.358Z,26.00
2023-03-02T23:42:32.907Z,20.50
2023-03-02T23:45:01.382Z,21.80
2023-03-02T23:47:29.920Z,21.50
2023-03-02T23:49:58.346Z,22.10
2023-03-02T23:52:26.897Z,24.60
2023-03-02T23:54:55.396Z,23.70
2023-03-02T23:57:23.910Z,23.10
2023-03-02T23:59:52.443Z,20.60
